sensor_id;sensor_type;location;lat;lon;timestamp;temperature;humidity
12655;DHT22;6392;44.644;11.448;2022-07-18T00:01:17;24.90;99.90
12655;DHT22;6392;44.644;11.448;2022-07-18T00:03:44;24.90;99.90
12655;DHT22;6392;44.644;11.448;2022-07-18T00:06:19;24.90;99.90
12655;DHT22;6392;44.644;11.448;2022-07-18T00:08:46;24.80;99.90
12655;DHT22;6392;44.644;11.448;2022-07-18T00:11:13;24.80;99.90
12655;DHT22;6392;44.644;11.448;2022-07-18T00:13:41;24.80;99.90
12655;DHT22;6392;44.644;11.448;2022-07-18T00:16:09;24.80;99.90
12655;DHT22;6392;44.644;11.448;2022-07-18T00:18:45;24.70;99.90
12655;DHT22;6392;44.644;11.448;2022-07-18T00:21:12;24.70;99.90
12655;DHT22;6392;44.644;11.448;2022-07-18T00:23:40;24.60;99.90
12655;DHT22;6392;44.644;11.448;2022-07-18T00:26:07;24.70;99.90
12655;DHT22;6392;44.644;11.448;2022-07-18T00:28:34;24.70;99.90
12655;DHT22;6392;44.644;11.448;2022-07-18T00:31:03;24.70;99.90
12655;DHT22;6392;44.644;11.448;2022-07-18T00:33:30;24.70;99.90
12655;DHT22;6392;44.644;11.448;2022-07-18T00:35:58;24.60;99.90
12655;DHT22;6392;44.644;11.448;2022-07-18T00:38:25;24.50;99.90
12655;DHT22;6392;44.644;11.448;2022-07-18T00:40:58;24.40;99.90
12655;DHT22;6392;44.644;11.448;2022-07-18T00:43:29;24.40;99.90
12655;DHT22;6392;44.644;11.448;2022-07-18T00:45:56;24.40;99.90
12655;DHT22;6392;44.644;11.448;2022-07-18T00:48:25;24.40;99.90
12655;DHT22;6392;44.644;11.448;2022-07-18T00:50:52;24.30;99.90
12655;DHT22;6392;44.644;11.448;2022-07-18T00:53:26;24.30;99.90
12655;DHT22;6392;44.644;11.448;2022-07-18T00:55:53;24.30;99.90
12655;DHT22;6392;44.644;11.448;2022-07-18T00:58:22;24.30;99.90
12655;DHT22;6392;44.644;11.448;2022-07-18T01:00:49;24.10;99.90
12655;DHT22;6392;44.644;11.448;2022-07-18T01:03:35;24.00;99.90
12655;DHT22;6392;44.644;11.448;2022-07-18T01:06:02;24.00;99.90
12655;DHT22;6392;44.644;11.448;2022-07-18T01:08:29;23.90;99.90
12655;DHT22;6392;44.644;11.448;2022-07-18T01:10:57;23.80;99.90
12655;DHT22;6392;44.644;11.448;2022-07-18T01:13:24;23.80;99.90
12655;DHT22;6392;44.644;11.448;2022-07-18T01:15:51;23.70;99.90
12655;DHT22;6392;44.644;11.448;2022-07-18T01:18:18;23.70;99.90
12655;DHT22;6392;44.644;11.448;2022-07-18T01:20:46;23.70;99.90
12655;DHT22;6392;44.644;11.448;2022-07-18T01:23:13;23.60;99.90
12655;DHT22;6392;44.644;11.448;2022-07-18T01:25:40;23.60;99.90
12655;DHT22;6392;44.644;11.448;2022-07-18T01:28:08;23.50;99.90
12655;DHT22;6392;44.644;11.448;2022-07-18T01:30:36;23.50;99.90
12655;DHT22;6392;44.644;11.448;2022-07-18T01:33:04;23.50;99.90
12655;DHT22;6392;44.644;11.448;2022-07-18T01:35:32;23.40;99.90
12655;DHT22;6392;44.644;11.448;2022-07-18T01:38:02;23.40;99.90
12655;DHT22;6392;44.644;11.448;2022-07-18T01:40:29;23.40;99.90
12655;DHT22;6392;44.644;11.448;2022-07-18T01:42:57;23.40;99.90
12655;DHT22;6392;44.644;11.448;2022-07-18T01:45:24;23.40;99.90
12655;DHT22;6392;44.644;11.448;2022-07-18T01:47:51;23.40;99.90
12655;DHT22;6392;44.644;11.448;2022-07-18T01:50:19;23.40;99.90
12655;DHT22;6392;44.644;11.448;2022-07-18T01:52:47;23.40;99.90
12655;DHT22;6392;44.644;11.448;2022-07-18T01:55:22;23.40;99.90
12655;DHT22;6392;44.644;11.448;2022-07-18T01:57:49;23.30;99.90
12655;DHT22;6392;44.644;11.448;2022-07-18T02:00:18;23.20;99.90
12655;DHT22;6392;44.644;11.448;2022-07-18T02:02:48;23.10;99.90
12655;DHT22;6392;44.644;11.448;2022-07-18T02:05:19;23.10;99.90
12655;DHT22;6392;44.644;11.448;2022-07-18T02:07:46;23.10;99.90
12655;DHT22;6392;44.644;11.448;2022-07-18T02:10:18;23.10;99.90
12655;DHT22;6392;44.644;11.448;2022-07-18T02:12:47;23.00;99.90
12655;DHT22;6392;44.644;11.448;2022-07-18T02:15:20;23.00;99.90
12655;DHT22;6392;44.644;11.448;2022-07-18T02:17:48;23.00;99.90
12655;DHT22;6392;44.644;11.448;2022-07-18T02:20:20;23.00;99.90
12655;DHT22;6392;44.644;11.448;2022-07-18T02:22:48;23.00;99.90
12655;DHT22;6392;44.644;11.448;2022-07-18T02:25:15;22.90;99.90
12655;DHT22;6392;44.644;11.448;2022-07-18T02:27:49;22.90;99.90
12655;DHT22;6392;44.644;11.448;2022-07-18T02:30:22;22.80;99.90
12655;DHT22;6392;44.644;11.448;2022-07-18T02:32:49;22.80;99.90
12655;DHT22;6392;44.644;11.448;2022-07-18T02:35:16;22.70;99.90
12655;DHT22;6392;44.644;11.448;2022-07-18T02:37:48;22.70;99.90
12655;DHT22;6392;44.644;11.448;2022-07-18T02:40:15;22.70;99.90
12655;DHT22;6392;44.644;11.448;2022-07-18T02:42:42;22.80;99.90
12655;DHT22;6392;44.644;11.448;2022-07-18T02:45:20;22.80;99.90
12655;DHT22;6392;44.644;11.448;2022-07-18T02:47:47;22.80;99.90
12655;DHT22;6392;44.644;11.448;2022-07-18T02:50:14;22.80;99.90
12655;DHT22;6392;44.644;11.448;2022-07-18T02:52:42;22.80;99.90
12655;DHT22;6392;44.644;11.448;2022-07-18T02:55:16;22.80;99.90
12655;DHT22;6392;44.644;11.448;2022-07-18T02:57:43;22.80;99.90
12655;DHT22;6392;44.644;11.448;2022-07-18T03:00:12;22.70;99.90
12655;DHT22;6392;44.644;11.448;2022-07-18T03:02:42;22.70;99.90
12655;DHT22;6392;44.644;11.448;2022-07-18T03:05:10;22.70;99.90
12655;DHT22;6392;44.644;11.448;2022-07-18T03:07:37;22.70;99.90
12655;DHT22;6392;44.644;11.448;2022-07-18T03:10:06;22.70;99.90
12655;DHT22;6392;44.644;11.448;2022-07-18T03:12:36;22.70;99.90
12655;DHT22;6392;44.644;11.448;2022-07-18T03:15:03;22.70;99.90
12655;DHT22;6392;44.644;11.448;2022-07-18T03:17:31;22.70;99.90
12655;DHT22;6392;44.644;11.448;2022-07-18T03:19:59;22.70;99.90
12655;DHT22;6392;44.644;11.448;2022-07-18T03:22:26;22.70;99.90
12655;DHT22;6392;44.644;11.448;2022-07-18T03:24:53;22.70;99.90
12655;DHT22;6392;44.644;11.448;2022-07-18T03:27:21;22.70;99.90
12655;DHT22;6392;44.644;11.448;2022-07-18T03:29:49;22.70;99.90
12655;DHT22;6392;44.644;11.448;2022-07-18T03:32:21;22.70;99.90
12655;DHT22;6392;44.644;11.448;2022-07-18T03:34:48;22.70;99.90
12655;DHT22;6392;44.644;11.448;2022-07-18T03:37:24;22.80;99.90
12655;DHT22;6392;44.644;11.448;2022-07-18T03:39:51;22.80;99.90
12655;DHT22;6392;44.644;11.448;2022-07-18T03:42:18;22.80;99.90
12655;DHT22;6392;44.644;11.448;2022-07-18T03:44:45;22.80;99.90
12655;DHT22;6392;44.644;11.448;2022-07-18T03:47:12;22.80;99.90
12655;DHT22;6392;44.644;11.448;2022-07-18T03:49:39;22.80;99.90
12655;DHT22;6392;44.644;11.448;2022-07-18T03:52:07;22.70;99.90
12655;DHT22;6392;44.644;11.448;2022-07-18T03:54:35;22.60;99.90
12655;DHT22;6392;44.644;11.448;2022-07-18T03:57:02;22.60;99.90
12655;DHT22;6392;44.644;11.448;2022-07-18T03:59:29;22.50;99.90
12655;DHT22;6392;44.644;11.448;2022-07-18T04:01:57;22.50;99.90
12655;DHT22;6392;44.644;11.448;2022-07-18T04:04:24;22.50;99.90
12655;DHT22;6392;44.644;11.448;2022-07-18T04:06:51;22.50;99.90
12655;DHT22;6392;44.644;11.448;2022-07-18T04:09:19;22.50;99.90
12655;DHT22;6392;44.644;11.448;2022-07-18T04:11:47;22.50;99.90
12655;DHT22;6392;44.644;11.448;2022-07-18T04:14:14;22.50;99.90
12655;DHT22;6392;44.644;11.448;2022-07-18T04:16:42;22.50;99.90
12655;DHT22;6392;44.644;11.448;2022-07-18T04:19:11;22.50;99.90
12655;DHT22;6392;44.644;11.448;2022-07-18T04:21:43;22.50;99.90
12655;DHT22;6392;44.644;11.448;2022-07-18T04:24:10;22.50;99.90
12655;DHT22;6392;44.644;11.448;2022-07-18T04:26:38;22.50;99.90
12655;DHT22;6392;44.644;11.448;2022-07-18T04:29:06;22.60;99.90
12655;DHT22;6392;44.644;11.448;2022-07-18T04:31:35;22.60;99.90
12655;DHT22;6392;44.644;11.448;2022-07-18T04:34:07;22.60;99.90
12655;DHT22;6392;44.644;11.448;2022-07-18T04:36:35;22.60;99.90
12655;DHT22;6392;44.644;11.448;2022-07-18T04:39:12;22.70;99.90
12655;DHT22;6392;44.644;11.448;2022-07-18T04:41:40;22.70;99.90
12655;DHT22;6392;44.644;11.448;2022-07-18T04:44:09;22.80;99.90
12655;DHT22;6392;44.644;11.448;2022-07-18T04:46:41;22.90;99.90
12655;DHT22;6392;44.644;11.448;2022-07-18T04:49:08;22.90;99.90
12655;DHT22;6392;44.644;11.448;2022-07-18T04:51:35;23.00;99.90
12655;DHT22;6392;44.644;11.448;2022-07-18T04:54:02;23.10;99.90
12655;DHT22;6392;44.644;11.448;2022-07-18T04:56:29;23.10;99.90
12655;DHT22;6392;44.644;11.448;2022-07-18T04:58:56;23.20;99.90
12655;DHT22;6392;44.644;11.448;2022-07-18T05:01:25;23.20;99.90
12655;DHT22;6392;44.644;11.448;2022-07-18T05:03:52;23.30;99.90
12655;DHT22;6392;44.644;11.448;2022-07-18T05:06:20;23.30;99.90
12655;DHT22;6392;44.644;11.448;2022-07-18T05:08:47;23.40;99.90
12655;DHT22;6392;44.644;11.448;2022-07-18T05:11:16;23.40;99.90
12655;DHT22;6392;44.644;11.448;2022-07-18T05:13:43;23.50;99.90
12655;DHT22;6392;44.644;11.448;2022-07-18T05:16:11;23.50;99.90
12655;DHT22;6392;44.644;11.448;2022-07-18T05:18:39;23.60;99.90
12655;DHT22;6392;44.644;11.448;2022-07-18T05:21:07;23.70;99.90
12655;DHT22;6392;44.644;11.448;2022-07-18T05:23:43;23.70;99.90
12655;DHT22;6392;44.644;11.448;2022-07-18T05:26:11;23.70;99.90
12655;DHT22;6392;44.644;11.448;2022-07-18T05:28:38;23.80;99.90
12655;DHT22;6392;44.644;11.448;2022-07-18T05:31:05;23.90;99.90
12655;DHT22;6392;44.644;11.448;2022-07-18T05:33:33;23.90;99.90
12655;DHT22;6392;44.644;11.448;2022-07-18T05:36:01;24.00;99.90
12655;DHT22;6392;44.644;11.448;2022-07-18T05:38:29;24.10;99.90
12655;DHT22;6392;44.644;11.448;2022-07-18T05:40:56;24.10;99.90
12655;DHT22;6392;44.644;11.448;2022-07-18T05:43:32;24.20;99.90
12655;DHT22;6392;44.644;11.448;2022-07-18T05:45:59;24.30;99.90
12655;DHT22;6392;44.644;11.448;2022-07-18T05:48:26;24.40;99.90
12655;DHT22;6392;44.644;11.448;2022-07-18T05:51:01;24.40;99.90
12655;DHT22;6392;44.644;11.448;2022-07-18T05:53:28;24.50;99.90
12655;DHT22;6392;44.644;11.448;2022-07-18T05:55:56;24.60;99.90
12655;DHT22;6392;44.644;11.448;2022-07-18T05:58:23;24.60;99.90
12655;DHT22;6392;44.644;11.448;2022-07-18T06:00:50;24.70;99.90
12655;DHT22;6392;44.644;11.448;2022-07-18T06:03:17;24.80;99.90
12655;DHT22;6392;44.644;11.448;2022-07-18T06:05:44;24.80;99.90
12655;DHT22;6392;44.644;11.448;2022-07-18T06:08:13;24.80;99.90
12655;DHT22;6392;44.644;11.448;2022-07-18T06:10:40;24.90;99.90
12655;DHT22;6392;44.644;11.448;2022-07-18T06:13:07;25.00;99.90
12655;DHT22;6392;44.644;11.448;2022-07-18T06:15:34;25.10;99.90
12655;DHT22;6392;44.644;11.448;2022-07-18T06:18:02;25.20;99.90
12655;DHT22;6392;44.644;11.448;2022-07-18T06:20:29;25.30;99.90
12655;DHT22;6392;44.644;11.448;2022-07-18T06:23:05;25.30;99.90
12655;DHT22;6392;44.644;11.448;2022-07-18T06:25:33;25.40;99.90
12655;DHT22;6392;44.644;11.448;2022-07-18T06:28:02;25.50;99.90
12655;DHT22;6392;44.644;11.448;2022-07-18T06:30:29;25.50;99.90
12655;DHT22;6392;44.644;11.448;2022-07-18T06:33:04;25.60;99.90
12655;DHT22;6392;44.644;11.448;2022-07-18T06:35:33;25.70;99.90
12655;DHT22;6392;44.644;11.448;2022-07-18T06:38:05;25.70;99.90
12655;DHT22;6392;44.644;11.448;2022-07-18T06:40:34;25.80;99.90
12655;DHT22;6392;44.644;11.448;2022-07-18T06:43:01;25.90;99.90
12655;DHT22;6392;44.644;11.448;2022-07-18T06:45:28;25.90;99.90
12655;DHT22;6392;44.644;11.448;2022-07-18T06:47:55;26.00;99.90
12655;DHT22;6392;44.644;11.448;2022-07-18T06:50:22;26.10;99.90
12655;DHT22;6392;44.644;11.448;2022-07-18T06:52:50;26.20;99.90
12655;DHT22;6392;44.644;11.448;2022-07-18T06:55:22;26.20;99.90
12655;DHT22;6392;44.644;11.448;2022-07-18T06:57:50;26.30;99.90
12655;DHT22;6392;44.644;11.448;2022-07-18T07:00:17;26.30;99.90
12655;DHT22;6392;44.644;11.448;2022-07-18T07:02:50;26.40;99.90
12655;DHT22;6392;44.644;11.448;2022-07-18T07:05:21;26.40;99.90
12655;DHT22;6392;44.644;11.448;2022-07-18T07:07:48;26.50;99.90
12655;DHT22;6392;44.644;11.448;2022-07-18T07:10:16;26.60;99.90
12655;DHT22;6392;44.644;11.448;2022-07-18T07:12:46;26.70;99.90
12655;DHT22;6392;44.644;11.448;2022-07-18T07:15:22;26.70;99.90
12655;DHT22;6392;44.644;11.448;2022-07-18T07:17:50;26.80;99.90
12655;DHT22;6392;44.644;11.448;2022-07-18T07:20:22;26.90;99.90
12655;DHT22;6392;44.644;11.448;2022-07-18T07:22:52;27.00;99.90
12655;DHT22;6392;44.644;11.448;2022-07-18T07:25:20;27.00;99.90
12655;DHT22;6392;44.644;11.448;2022-07-18T07:27:50;27.00;99.90
12655;DHT22;6392;44.644;11.448;2022-07-18T07:30:19;27.00;99.90
12655;DHT22;6392;44.644;11.448;2022-07-18T07:32:47;27.00;99.90
12655;DHT22;6392;44.644;11.448;2022-07-18T07:35:18;27.10;99.90
12655;DHT22;6392;44.644;11.448;2022-07-18T07:37:46;27.20;99.90
12655;DHT22;6392;44.644;11.448;2022-07-18T07:40:16;27.20;99.90
12655;DHT22;6392;44.644;11.448;2022-07-18T07:42:44;27.30;99.90
12655;DHT22;6392;44.644;11.448;2022-07-18T07:45:14;27.30;99.90
12655;DHT22;6392;44.644;11.448;2022-07-18T07:47:44;27.30;99.90
12655;DHT22;6392;44.644;11.448;2022-07-18T07:50:12;27.40;99.90
12655;DHT22;6392;44.644;11.448;2022-07-18T07:52:41;27.40;99.90
12655;DHT22;6392;44.644;11.448;2022-07-18T07:55:08;27.50;99.90
12655;DHT22;6392;44.644;11.448;2022-07-18T07:57:36;27.60;99.90
12655;DHT22;6392;44.644;11.448;2022-07-18T08:00:06;27.60;99.90
12655;DHT22;6392;44.644;11.448;2022-07-18T08:02:34;27.70;99.90
12655;DHT22;6392;44.644;11.448;2022-07-18T08:05:10;27.80;99.90
12655;DHT22;6392;44.644;11.448;2022-07-18T08:07:42;27.90;99.90
12655;DHT22;6392;44.644;11.448;2022-07-18T08:10:14;27.90;99.90
12655;DHT22;6392;44.644;11.448;2022-07-18T08:12:42;28.00;99.90
12655;DHT22;6392;44.644;11.448;2022-07-18T08:15:10;28.00;99.90
12655;DHT22;6392;44.644;11.448;2022-07-18T08:17:37;28.00;99.90
12655;DHT22;6392;44.644;11.448;2022-07-18T08:20:05;28.00;99.90
12655;DHT22;6392;44.644;11.448;2022-07-18T08:22:34;28.00;99.90
12655;DHT22;6392;44.644;11.448;2022-07-18T08:25:01;28.10;99.90
12655;DHT22;6392;44.644;11.448;2022-07-18T08:27:29;28.10;99.90
12655;DHT22;6392;44.644;11.448;2022-07-18T08:29:56;28.20;99.90
12655;DHT22;6392;44.644;11.448;2022-07-18T08:32:23;28.20;99.90
12655;DHT22;6392;44.644;11.448;2022-07-18T08:34:56;28.20;99.90
12655;DHT22;6392;44.644;11.448;2022-07-18T08:37:41;28.20;99.90
12655;DHT22;6392;44.644;11.448;2022-07-18T08:40:09;28.10;99.90
12655;DHT22;6392;44.644;11.448;2022-07-18T08:42:36;28.20;99.90
12655;DHT22;6392;44.644;11.448;2022-07-18T08:45:04;28.20;99.90
12655;DHT22;6392;44.644;11.448;2022-07-18T08:47:32;28.30;99.90
12655;DHT22;6392;44.644;11.448;2022-07-18T08:50:00;28.30;99.90
12655;DHT22;6392;44.644;11.448;2022-07-18T08:52:29;28.30;99.90
12655;DHT22;6392;44.644;11.448;2022-07-18T08:55:00;28.40;99.90
12655;DHT22;6392;44.644;11.448;2022-07-18T08:57:27;28.50;99.90
12655;DHT22;6392;44.644;11.448;2022-07-18T08:59:55;28.40;99.90
12655;DHT22;6392;44.644;11.448;2022-07-18T09:02:24;28.40;99.90
12655;DHT22;6392;44.644;11.448;2022-07-18T09:04:52;28.50;99.90
12655;DHT22;6392;44.644;11.448;2022-07-18T09:07:25;28.50;99.90
12655;DHT22;6392;44.644;11.448;2022-07-18T09:09:54;28.60;99.90
12655;DHT22;6392;44.644;11.448;2022-07-18T09:12:33;28.50;99.90
12655;DHT22;6392;44.644;11.448;2022-07-18T09:15:05;28.60;99.90
12655;DHT22;6392;44.644;11.448;2022-07-18T09:17:34;28.70;99.90
12655;DHT22;6392;44.644;11.448;2022-07-18T09:20:04;28.70;99.90
12655;DHT22;6392;44.644;11.448;2022-07-18T09:22:34;28.70;99.90
12655;DHT22;6392;44.644;11.448;2022-07-18T09:25:04;28.70;99.90
12655;DHT22;6392;44.644;11.448;2022-07-18T09:27:36;28.80;99.90
12655;DHT22;6392;44.644;11.448;2022-07-18T09:30:32;28.90;99.90
12655;DHT22;6392;44.644;11.448;2022-07-18T09:33:08;28.90;99.90
12655;DHT22;6392;44.644;11.448;2022-07-18T09:35:43;28.90;99.90
12655;DHT22;6392;44.644;11.448;2022-07-18T09:38:11;28.90;99.90
12655;DHT22;6392;44.644;11.448;2022-07-18T09:40:42;28.90;99.90
12655;DHT22;6392;44.644;11.448;2022-07-18T09:43:16;28.90;99.90
12655;DHT22;6392;44.644;11.448;2022-07-18T09:45:45;28.90;99.90
12655;DHT22;6392;44.644;11.448;2022-07-18T09:48:16;29.00;99.90
12655;DHT22;6392;44.644;11.448;2022-07-18T09:50:50;29.00;99.90
12655;DHT22;6392;44.644;11.448;2022-07-18T09:53:19;28.90;99.90
12655;DHT22;6392;44.644;11.448;2022-07-18T09:55:51;28.80;99.90
12655;DHT22;6392;44.644;11.448;2022-07-18T09:58:27;28.80;99.90
12655;DHT22;6392;44.644;11.448;2022-07-18T10:00:57;29.00;99.90
12655;DHT22;6392;44.644;11.448;2022-07-18T10:03:24;29.00;99.90
12655;DHT22;6392;44.644;11.448;2022-07-18T10:05:54;29.10;99.90
12655;DHT22;6392;44.644;11.448;2022-07-18T10:08:24;29.20;99.90
12655;DHT22;6392;44.644;11.448;2022-07-18T10:10:53;29.20;99.90
12655;DHT22;6392;44.644;11.448;2022-07-18T10:13:23;29.10;99.90
12655;DHT22;6392;44.644;11.448;2022-07-18T10:15:51;29.10;99.90
12655;DHT22;6392;44.644;11.448;2022-07-18T10:18:21;29.10;99.90
12655;DHT22;6392;44.644;11.448;2022-07-18T10:20:52;29.20;99.90
12655;DHT22;6392;44.644;11.448;2022-07-18T10:23:22;29.10;99.90
12655;DHT22;6392;44.644;11.448;2022-07-18T10:26:12;29.10;99.90
12655;DHT22;6392;44.644;11.448;2022-07-18T10:29:14;29.00;99.90
12655;DHT22;6392;44.644;11.448;2022-07-18T10:32:00;29.10;99.90
12655;DHT22;6392;44.644;11.448;2022-07-18T10:34:32;29.20;99.90
12655;DHT22;6392;44.644;11.448;2022-07-18T10:37:11;29.20;99.90
12655;DHT22;6392;44.644;11.448;2022-07-18T10:39:43;29.30;99.90
12655;DHT22;6392;44.644;11.448;2022-07-18T10:42:20;29.20;99.90
12655;DHT22;6392;44.644;11.448;2022-07-18T10:44:51;29.30;99.90
12655;DHT22;6392;44.644;11.448;2022-07-18T10:47:20;29.20;99.90
12655;DHT22;6392;44.644;11.448;2022-07-18T10:50:08;29.20;99.90
12655;DHT22;6392;44.644;11.448;2022-07-18T10:53:06;29.20;99.90
12655;DHT22;6392;44.644;11.448;2022-07-18T10:55:33;29.20;99.90
12655;DHT22;6392;44.644;11.448;2022-07-18T10:58:20;29.20;99.90
12655;DHT22;6392;44.644;11.448;2022-07-18T11:00:52;29.20;99.90
12655;DHT22;6392;44.644;11.448;2022-07-18T11:03:27;29.40;99.90
12655;DHT22;6392;44.644;11.448;2022-07-18T11:05:55;29.30;99.90
12655;DHT22;6392;44.644;11.448;2022-07-18T11:08:23;29.30;99.90
12655;DHT22;6392;44.644;11.448;2022-07-18T11:11:08;29.20;99.90
12655;DHT22;6392;44.644;11.448;2022-07-18T11:13:37;29.30;99.90
12655;DHT22;6392;44.644;11.448;2022-07-18T11:16:09;29.30;99.90
12655;DHT22;6392;44.644;11.448;2022-07-18T11:21:38;29.30;99.90
12655;DHT22;6392;44.644;11.448;2022-07-18T11:24:07;29.30;99.90
12655;DHT22;6392;44.644;11.448;2022-07-18T11:26:36;29.30;99.90
12655;DHT22;6392;44.644;11.448;2022-07-18T11:29:05;29.40;99.90
12655;DHT22;6392;44.644;11.448;2022-07-18T11:31:43;29.50;99.90
12655;DHT22;6392;44.644;11.448;2022-07-18T11:34:14;29.50;99.90
12655;DHT22;6392;44.644;11.448;2022-07-18T11:36:44;29.50;99.90
12655;DHT22;6392;44.644;11.448;2022-07-18T11:39:12;29.40;99.90
12655;DHT22;6392;44.644;11.448;2022-07-18T11:41:41;29.40;99.90
12655;DHT22;6392;44.644;11.448;2022-07-18T11:44:20;29.50;99.90
12655;DHT22;6392;44.644;11.448;2022-07-18T11:47:01;29.60;99.90
12655;DHT22;6392;44.644;11.448;2022-07-18T11:49:29;29.60;99.90
12655;DHT22;6392;44.644;11.448;2022-07-18T11:51:58;29.50;99.90
12655;DHT22;6392;44.644;11.448;2022-07-18T11:54:25;29.40;99.90
12655;DHT22;6392;44.644;11.448;2022-07-18T11:56:57;29.40;99.90
12655;DHT22;6392;44.644;11.448;2022-07-18T11:59:35;29.40;99.90
12655;DHT22;6392;44.644;11.448;2022-07-18T12:02:03;29.40;99.90
12655;DHT22;6392;44.644;11.448;2022-07-18T12:04:42;29.40;99.90
12655;DHT22;6392;44.644;11.448;2022-07-18T12:07:19;29.40;99.90
12655;DHT22;6392;44.644;11.448;2022-07-18T12:09:46;29.50;99.90
12655;DHT22;6392;44.644;11.448;2022-07-18T12:12:15;29.50;99.90
12655;DHT22;6392;44.644;11.448;2022-07-18T12:14:53;29.50;99.90
12655;DHT22;6392;44.644;11.448;2022-07-18T12:17:21;29.50;99.90
12655;DHT22;6392;44.644;11.448;2022-07-18T12:20:10;29.50;99.90
12655;DHT22;6392;44.644;11.448;2022-07-18T12:23:07;29.50;99.90
12655;DHT22;6392;44.644;11.448;2022-07-18T12:25:39;29.50;99.90
12655;DHT22;6392;44.644;11.448;2022-07-18T12:28:33;29.40;99.90
12655;DHT22;6392;44.644;11.448;2022-07-18T12:31:01;29.30;99.90
12655;DHT22;6392;44.644;11.448;2022-07-18T12:33:28;29.40;99.90
12655;DHT22;6392;44.644;11.448;2022-07-18T12:35:56;29.60;99.90
12655;DHT22;6392;44.644;11.448;2022-07-18T12:38:26;29.70;99.90
12655;DHT22;6392;44.644;11.448;2022-07-18T12:40:56;29.90;99.90
12655;DHT22;6392;44.644;11.448;2022-07-18T12:43:26;30.00;99.90
12655;DHT22;6392;44.644;11.448;2022-07-18T12:45:55;30.10;99.90
12655;DHT22;6392;44.644;11.448;2022-07-18T12:48:23;30.30;99.90
12655;DHT22;6392;44.644;11.448;2022-07-18T12:51:00;30.40;99.90
12655;DHT22;6392;44.644;11.448;2022-07-18T12:53:30;30.50;99.90
12655;DHT22;6392;44.644;11.448;2022-07-18T12:55:58;30.70;99.90
12655;DHT22;6392;44.644;11.448;2022-07-18T12:58:25;30.70;99.90
12655;DHT22;6392;44.644;11.448;2022-07-18T13:00:54;30.60;99.90
12655;DHT22;6392;44.644;11.448;2022-07-18T13:03:23;30.50;99.90
12655;DHT22;6392;44.644;11.448;2022-07-18T13:05:50;30.50;99.90
12655;DHT22;6392;44.644;11.448;2022-07-18T13:08:17;30.30;99.90
12655;DHT22;6392;44.644;11.448;2022-07-18T13:10:48;30.40;99.90
12655;DHT22;6392;44.644;11.448;2022-07-18T13:13:16;30.60;99.90
12655;DHT22;6392;44.644;11.448;2022-07-18T13:15:43;30.60;99.90
12655;DHT22;6392;44.644;11.448;2022-07-18T13:18:10;30.70;99.90
12655;DHT22;6392;44.644;11.448;2022-07-18T13:20:43;30.60;99.90
12655;DHT22;6392;44.644;11.448;2022-07-18T13:23:11;30.80;99.90
12655;DHT22;6392;44.644;11.448;2022-07-18T13:25:39;30.80;99.90
12655;DHT22;6392;44.644;11.448;2022-07-18T13:28:08;31.00;99.90
12655;DHT22;6392;44.644;11.448;2022-07-18T13:30:35;31.30;99.90
12655;DHT22;6392;44.644;11.448;2022-07-18T13:33:04;31.30;99.90
12655;DHT22;6392;44.644;11.448;2022-07-18T13:35:31;31.20;99.90
12655;DHT22;6392;44.644;11.448;2022-07-18T13:37:58;30.90;99.90
12655;DHT22;6392;44.644;11.448;2022-07-18T13:40:27;30.90;99.90
12655;DHT22;6392;44.644;11.448;2022-07-18T13:42:54;30.80;99.90
12655;DHT22;6392;44.644;11.448;2022-07-18T13:45:23;31.00;99.90
12655;DHT22;6392;44.644;11.448;2022-07-18T13:47:57;31.10;99.90
12655;DHT22;6392;44.644;11.448;2022-07-18T13:50:24;31.40;99.90
12655;DHT22;6392;44.644;11.448;2022-07-18T13:52:58;31.50;99.90
12655;DHT22;6392;44.644;11.448;2022-07-18T13:55:25;31.70;99.90
12655;DHT22;6392;44.644;11.448;2022-07-18T13:57:52;31.80;99.90
12655;DHT22;6392;44.644;11.448;2022-07-18T14:00:19;31.70;99.90
12655;DHT22;6392;44.644;11.448;2022-07-18T14:02:53;31.80;99.90
12655;DHT22;6392;44.644;11.448;2022-07-18T14:05:20;31.90;99.90
12655;DHT22;6392;44.644;11.448;2022-07-18T14:07:52;31.80;99.90
12655;DHT22;6392;44.644;11.448;2022-07-18T14:10:22;31.90;99.90
12655;DHT22;6392;44.644;11.448;2022-07-18T14:12:49;31.80;99.90
12655;DHT22;6392;44.644;11.448;2022-07-18T14:15:16;31.90;99.90
12655;DHT22;6392;44.644;11.448;2022-07-18T14:17:46;32.00;99.90
12655;DHT22;6392;44.644;11.448;2022-07-18T14:20:15;32.30;99.90
12655;DHT22;6392;44.644;11.448;2022-07-18T14:22:43;32.10;99.90
12655;DHT22;6392;44.644;11.448;2022-07-18T14:25:12;31.90;99.90
12655;DHT22;6392;44.644;11.448;2022-07-18T14:27:40;31.90;99.90
12655;DHT22;6392;44.644;11.448;2022-07-18T14:30:10;31.70;99.90
12655;DHT22;6392;44.644;11.448;2022-07-18T14:32:38;31.80;99.90
12655;DHT22;6392;44.644;11.448;2022-07-18T14:35:06;31.80;99.90
12655;DHT22;6392;44.644;11.448;2022-07-18T14:37:35;31.90;99.90
12655;DHT22;6392;44.644;11.448;2022-07-18T14:40:08;32.30;99.90
12655;DHT22;6392;44.644;11.448;2022-07-18T14:42:41;32.90;99.90
12655;DHT22;6392;44.644;11.448;2022-07-18T14:45:09;33.30;99.90
12655;DHT22;6392;44.644;11.448;2022-07-18T14:47:36;33.40;99.90
12655;DHT22;6392;44.644;11.448;2022-07-18T14:50:22;33.50;99.90
12655;DHT22;6392;44.644;11.448;2022-07-18T14:52:52;33.40;99.90
12655;DHT22;6392;44.644;11.448;2022-07-18T14:55:19;33.50;99.90
12655;DHT22;6392;44.644;11.448;2022-07-18T14:57:46;33.80;99.90
12655;DHT22;6392;44.644;11.448;2022-07-18T15:00:14;34.00;99.90
12655;DHT22;6392;44.644;11.448;2022-07-18T15:02:42;33.60;99.90
12655;DHT22;6392;44.644;11.448;2022-07-18T15:05:09;33.20;99.90
12655;DHT22;6392;44.644;11.448;2022-07-18T15:07:46;33.30;99.90
12655;DHT22;6392;44.644;11.448;2022-07-18T15:10:14;33.30;99.90
12655;DHT22;6392;44.644;11.448;2022-07-18T15:12:42;33.50;99.90
12655;DHT22;6392;44.644;11.448;2022-07-18T15:15:09;33.60;99.90
12655;DHT22;6392;44.644;11.448;2022-07-18T15:17:44;33.90;99.90
12655;DHT22;6392;44.644;11.448;2022-07-18T15:20:12;34.10;99.90
12655;DHT22;6392;44.644;11.448;2022-07-18T15:22:48;34.10;99.90
12655;DHT22;6392;44.644;11.448;2022-07-18T15:25:16;34.40;99.90
12655;DHT22;6392;44.644;11.448;2022-07-18T15:27:44;34.70;99.90
12655;DHT22;6392;44.644;11.448;2022-07-18T15:30:11;34.70;99.90
12655;DHT22;6392;44.644;11.448;2022-07-18T15:32:38;34.80;99.90
12655;DHT22;6392;44.644;11.448;2022-07-18T15:35:06;34.90;99.90
12655;DHT22;6392;44.644;11.448;2022-07-18T15:37:33;34.70;99.90
12655;DHT22;6392;44.644;11.448;2022-07-18T15:40:01;34.60;99.90
12655;DHT22;6392;44.644;11.448;2022-07-18T15:42:29;34.70;99.90
12655;DHT22;6392;44.644;11.448;2022-07-18T15:44:56;34.70;99.90
12655;DHT22;6392;44.644;11.448;2022-07-18T15:47:25;34.70;99.90
12655;DHT22;6392;44.644;11.448;2022-07-18T15:49:57;34.70;99.90